createdAt,value
2022-08-31T13:17:39.599Z,90.70
2022-08-31T13:20:20.147Z,78.30
2022-08-31T13:23:00.253Z,74.10
2022-08-31T13:25:38.737Z,89.60
2022-08-31T13:28:13.808Z,85.50
2022-08-31T13:30:55.082Z,85.00
2022-08-31T13:33:31.778Z,77.70
2022-08-31T13:36:32.508Z,87.40
2022-08-31T13:39:16.793Z,84.20
2022-08-31T13:42:20.701Z,67.80
2022-08-31T13:45:03.505Z,69.90
2022-08-31T13:47:47.596Z,77.40
2022-08-31T13:50:53.600Z,69.90
2022-08-31T13:53:46.397Z,86.70
2022-08-31T13:56:47.763Z,80.50
2022-08-31T13:59:23.121Z,82.10
2022-08-31T14:02:16.501Z,76.40
2022-08-31T14:04:46.484Z,84.20
2022-08-31T14:07:38.937Z,80.30
2022-08-31T14:10:24.266Z,77.30
2022-08-31T14:13:14.201Z,77.20
2022-08-31T14:15:58.154Z,65.90
2022-08-31T14:18:40.639Z,82.10
2022-08-31T14:24:01.090Z,80.10
2022-08-31T14:26:43.170Z,77.50
2022-08-31T14:29:16.659Z,79.70
2022-08-31T14:31:54.878Z,74.90
2022-08-31T14:34:28.085Z,77.30
2022-08-31T14:37:19.540Z,82.70
2022-08-31T14:40:07.549Z,75.90
2022-08-31T14:42:38.633Z,74.00
2022-08-31T14:45:20.108Z,75.20
2022-08-31T14:47:52.184Z,64.00
2022-08-31T14:50:26.361Z,72.40
2022-08-31T14:52:57.482Z,72.80
2022-08-31T14:55:28.205Z,75.00
2022-08-31T14:58:12.085Z,72.90
2022-08-31T15:00:49.811Z,70.60
2022-08-31T15:03:24.390Z,75.20
2022-08-31T15:05:52.504Z,76.10
2022-08-31T15:13:33.319Z,74.60
2022-08-31T15:16:04.026Z,77.60
2022-08-31T15:18:35.930Z,79.30
2022-08-31T15:21:06.105Z,59.60
2022-08-31T15:23:36.776Z,78.80
2022-08-31T15:26:10.920Z,59.20
2022-08-31T15:28:42.158Z,59.10
2022-08-31T15:31:24.228Z,58.50
2022-08-31T15:33:55.193Z,57.20
2022-08-31T15:39:21.652Z,58.80
2022-08-31T15:47:06.806Z,59.80
2022-08-31T15:49:37.704Z,61.20
2022-08-31T15:52:13.429Z,58.50
2022-08-31T16:02:20.303Z,59.30
2022-08-31T16:10:21.520Z,57.20
2022-08-31T16:20:27.156Z,58.20
2022-08-31T16:22:58.633Z,57.10
2022-08-31T16:25:30.378Z,61.10
2022-08-31T16:28:20.653Z,60.50
2022-08-31T16:33:20.663Z,64.60
2022-08-31T16:56:03.798Z,66.20
2022-08-31T17:01:27.248Z,66.50
2022-08-31T17:04:07.467Z,62.90
2022-08-31T17:06:39.044Z,65.40
2022-08-31T17:09:16.113Z,65.50
2022-08-31T17:11:58.539Z,63.90
2022-08-31T17:14:43.346Z,65.40
2022-08-31T17:17:19.274Z,67.50
2022-08-31T17:22:25.541Z,67.20
2022-08-31T17:27:27.204Z,66.90
2022-08-31T17:29:56.064Z,67.40
2022-08-31T17:37:32.273Z,66.00
2022-08-31T17:45:36.843Z,65.70
2022-08-31T18:08:23.800Z,67.00
2022-08-31T18:10:53.342Z,73.20
2022-08-31T18:13:24.305Z,74.00
2022-08-31T18:31:11.666Z,70.70
2022-08-31T18:36:11.931Z,77.70
2022-08-31T18:59:09.075Z,72.40
2022-08-31T19:04:07.437Z,77.50
2022-08-31T19:09:11.675Z,79.80
2022-08-31T19:11:51.611Z,84.90
2022-08-31T19:14:23.263Z,80.60
2022-08-31T19:26:59.378Z,84.10
2022-08-31T19:29:31.146Z,86.00
2022-08-31T19:32:05.986Z,82.10
2022-08-31T19:37:07.767Z,86.10
2022-08-31T19:39:37.508Z,88.90
2022-08-31T19:42:08.834Z,86.20
2022-08-31T20:45:34.885Z,91.70
2022-08-31T20:48:29.097Z,89.60
2022-08-31T20:56:17.178Z,88.90
2022-08-31T20:58:46.807Z,90.60
2022-08-31T21:08:42.429Z,89.40
2022-08-31T21:18:48.685Z,90.00
2022-08-31T21:21:17.635Z,91.30
2022-08-31T21:23:47.733Z,90.00
2022-08-31T21:26:24.319Z,91.40
2022-08-31T21:29:17.950Z,86.30
2022-08-31T21:51:56.762Z,95.70
2022-08-31T21:54:28.525Z,92.90
2022-08-31T21:57:02.565Z,93.40
2022-08-31T22:02:11.586Z,92.80
2022-08-31T22:04:43.642Z,94.20
2022-08-31T22:20:13.010Z,90.70
2022-08-31T23:24:52.650Z,97.40
2022-08-31T23:27:22.480Z,95.90
2022-08-31T23:29:56.481Z,96.80
2022-08-31T23:32:27.973Z,96.70
2022-08-31T23:37:27.675Z,97.00
2022-08-31T23:39:58.226Z,95.40
2022-08-31T23:47:32.933Z,96.90
